createdAt,value
2023-03-13T00:00:57.118Z,100347.97
2023-03-13T00:03:23.787Z,100339.41
2023-03-13T00:05:50.539Z,100344.59
2023-03-13T00:08:17.279Z,100330.06
2023-03-13T00:10:43.921Z,100343.19
2023-03-13T00:13:10.560Z,100338.78
2023-03-13T00:15:37.201Z,100329.03
2023-03-13T00:18:04.140Z,100336.25
2023-03-13T00:20:30.772Z,100339.75
2023-03-13T00:22:57.358Z,100342.22
2023-03-13T00:25:24.002Z,100341.31
2023-03-13T00:27:50.771Z,100329.03
2023-03-13T00:30:17.687Z,100334.25
2023-03-13T00:32:45.718Z,100334.56
2023-03-13T00:35:13.303Z,100336.31
2023-03-13T00:37:39.999Z,100331.88
2023-03-13T00:40:07.809Z,100318.69
2023-03-13T00:42:34.664Z,100323.84
2023-03-13T00:45:01.257Z,100311.03
2023-03-13T00:47:27.889Z,100312.63
2023-03-13T00:49:54.588Z,100317.94
2023-03-13T00:52:21.162Z,100309.31
2023-03-13T00:54:47.788Z,100309.28
2023-03-13T00:57:14.445Z,100311.75
2023-03-13T00:59:41.077Z,100307.59
2023-03-13T01:02:07.836Z,100310.25
2023-03-13T01:04:34.594Z,100305.91
2023-03-13T01:07:01.236Z,100294.63
2023-03-13T01:09:27.852Z,100291.09
2023-03-13T01:11:54.645Z,100285.91
2023-03-13T01:14:21.307Z,100277.22
2023-03-13T01:16:48.363Z,100266.81
2023-03-13T01:19:17.136Z,100253.78
2023-03-13T01:21:45.233Z,100266.84
2023-03-13T01:24:12.567Z,100271.91
2023-03-13T01:26:39.304Z,100279.81
2023-03-13T01:29:05.982Z,100272.88
2023-03-13T01:31:35.135Z,100285.03
2023-03-13T01:34:04.537Z,100277.19
2023-03-13T01:36:31.720Z,100258.78
2023-03-13T01:39:00.331Z,100271.88
2023-03-13T01:41:29.210Z,100272.84
2023-03-13T01:43:56.437Z,100265.88
2023-03-13T01:46:26.055Z,100271.16
2023-03-13T01:49:11.045Z,100272.91
2023-03-13T01:51:45.463Z,100267.69
2023-03-13T01:54:30.843Z,100269.44
2023-03-13T01:57:01.563Z,100261.63
2023-03-13T01:59:32.166Z,100261.63
2023-03-13T02:02:01.406Z,100258.97
2023-03-13T02:04:35.467Z,100246.84
2023-03-13T02:07:09.207Z,100254.66
2023-03-13T02:09:39.965Z,100254.66
2023-03-13T02:12:24.543Z,100259.84
2023-03-13T02:14:51.725Z,100260.75
2023-03-13T02:17:18.610Z,100258.16
2023-03-13T02:19:48.426Z,100261.56
2023-03-13T02:22:33.511Z,100266.72
2023-03-13T02:25:15.043Z,100261.56
2023-03-13T02:27:43.827Z,100251.19
2023-03-13T02:30:13.140Z,100249.47
2023-03-13T02:32:40.560Z,100250.31
2023-03-13T02:35:13.693Z,100246.84
2023-03-13T02:37:43.251Z,100259.88
2023-03-13T02:40:14.178Z,100253.81
2023-03-13T02:42:43.750Z,100248.59
2023-03-13T02:45:12.289Z,100258.06
2023-03-13T02:47:38.957Z,100260.72
2023-03-13T02:50:05.712Z,100257.25
2023-03-13T02:52:44.123Z,100253.78
2023-03-13T02:55:22.198Z,100248.59
2023-03-13T02:57:49.039Z,100260.72
2023-03-13T03:00:17.132Z,100261.59
2023-03-13T03:02:44.296Z,100267.69
2023-03-13T03:05:12.697Z,100264.19
2023-03-13T03:07:39.611Z,100274.66
2023-03-13T03:10:06.872Z,100280.69
2023-03-13T03:12:33.573Z,100278.94
2023-03-13T03:15:00.302Z,100273.50
2023-03-13T03:17:27.000Z,100272.75
2023-03-13T03:19:53.672Z,100282.34
2023-03-13T03:22:20.325Z,100283.19
2023-03-13T03:24:47.096Z,100275.94
2023-03-13T03:27:13.699Z,100280.44
2023-03-13T03:29:40.414Z,100282.22
2023-03-13T03:32:07.305Z,100272.78
2023-03-13T03:34:34.003Z,100268.53
2023-03-13T03:37:00.679Z,100261.59
2023-03-13T03:39:27.359Z,100275.41
2023-03-13T03:41:53.994Z,100268.47
2023-03-13T03:44:21.820Z,100266.78
2023-03-13T03:46:48.725Z,100258.97
2023-03-13T03:49:15.388Z,100267.59
2023-03-13T03:51:41.993Z,100264.84
2023-03-13T03:54:08.660Z,100263.91
2023-03-13T03:56:35.282Z,100262.94
2023-03-13T03:59:01.906Z,100270.56
2023-03-13T04:01:28.551Z,100281.28
2023-03-13T04:03:55.208Z,100290.91
2023-03-13T04:06:22.027Z,100279.41
2023-03-13T04:08:48.732Z,100281.13
2023-03-13T04:11:15.340Z,100282.00
2023-03-13T04:13:42.391Z,100290.00
2023-03-13T04:16:10.114Z,100299.50
2023-03-13T04:18:36.801Z,100300.41
2023-03-13T04:21:05.250Z,100304.56
2023-03-13T04:23:31.940Z,100303.94
2023-03-13T04:25:58.551Z,100306.47
2023-03-13T04:28:25.183Z,100318.63
2023-03-13T04:30:51.787Z,100321.25
2023-03-13T04:33:18.452Z,100320.34
2023-03-13T04:35:45.162Z,100319.47
2023-03-13T04:38:13.880Z,100324.56
2023-03-13T04:40:40.479Z,100323.91
2023-03-13T04:43:07.141Z,100313.44
2023-03-13T04:45:33.839Z,100314.97
2023-03-13T04:48:00.499Z,100310.44
2023-03-13T04:50:27.180Z,100304.72
2023-03-13T04:52:53.797Z,100311.59
2023-03-13T04:55:23.304Z,100310.00
2023-03-13T04:57:49.910Z,100316.13
2023-03-13T05:00:16.905Z,100318.63
2023-03-13T05:02:43.549Z,100325.50
2023-03-13T05:05:10.309Z,100321.38
2023-03-13T05:07:36.996Z,100323.72
2023-03-13T05:10:03.820Z,100326.53
2023-03-13T05:12:30.506Z,100344.78
2023-03-13T05:14:57.343Z,100339.25
2023-03-13T05:17:24.033Z,100341.84
2023-03-13T05:19:50.680Z,100349.78
2023-03-13T05:22:17.426Z,100348.94
2023-03-13T05:24:44.072Z,100347.34
2023-03-13T05:27:10.677Z,100351.84
2023-03-13T05:29:37.384Z,100347.44
2023-03-13T05:32:04.130Z,100344.78
2023-03-13T05:34:30.943Z,100354.44
2023-03-13T05:36:57.538Z,100360.41
2023-03-13T05:39:24.223Z,100358.66
2023-03-13T05:41:50.867Z,100361.09
2023-03-13T05:44:17.605Z,100362.06
2023-03-13T05:46:44.369Z,100354.97
2023-03-13T05:49:11.045Z,100355.16
2023-03-13T05:51:37.797Z,100355.25
2023-03-13T05:54:04.767Z,100348.97
2023-03-13T05:56:31.389Z,100353.53
2023-03-13T05:58:58.032Z,100351.59
2023-03-13T06:01:24.678Z,100353.59
2023-03-13T06:03:51.413Z,100346.63
2023-03-13T06:06:18.160Z,100348.19
2023-03-13T06:08:44.806Z,100351.00
2023-03-13T06:11:11.461Z,100353.53
2023-03-13T06:13:38.077Z,100361.44
2023-03-13T06:16:05.271Z,100349.22
2023-03-13T06:18:31.886Z,100353.50
2023-03-13T06:21:00.451Z,100343.97
2023-03-13T06:23:27.852Z,100344.88
2023-03-13T06:25:55.104Z,100350.03
2023-03-13T06:28:22.053Z,100350.03
2023-03-13T06:30:48.687Z,100341.34
2023-03-13T06:33:15.527Z,100340.53
2023-03-13T06:35:55.734Z,100350.19
2023-03-13T06:38:27.392Z,100352.66
2023-03-13T06:40:54.165Z,100346.44
2023-03-13T06:43:21.557Z,100348.25
2023-03-13T06:45:48.816Z,100346.56
2023-03-13T06:48:15.769Z,100345.81
2023-03-13T06:50:42.474Z,100344.13
2023-03-13T06:53:17.112Z,100345.84
2023-03-13T06:55:44.380Z,100354.53
2023-03-13T06:58:25.009Z,100361.50
2023-03-13T07:00:57.725Z,100352.84
2023-03-13T07:03:24.410Z,100340.56
2023-03-13T07:05:56.651Z,100338.03
2023-03-13T07:08:23.301Z,100334.59
2023-03-13T07:10:50.046Z,100340.66
2023-03-13T07:13:16.749Z,100344.13
2023-03-13T07:15:43.337Z,100350.22
2023-03-13T07:18:10.062Z,100351.06
2023-03-13T07:20:36.845Z,100348.50
2023-03-13T07:23:03.490Z,100351.09
2023-03-13T07:25:30.109Z,100348.34
2023-03-13T07:27:56.808Z,100349.28
2023-03-13T07:30:23.507Z,100344.13
2023-03-13T07:32:50.169Z,100346.75
2023-03-13T07:35:16.933Z,100338.06
2023-03-13T07:37:43.610Z,100335.44
2023-03-13T07:40:11.205Z,100332.84
2023-03-13T07:42:40.532Z,100330.22
2023-03-13T07:45:08.858Z,100323.31
2023-03-13T07:47:36.238Z,100326.72
2023-03-13T07:50:03.503Z,100320.56
2023-03-13T07:52:30.157Z,100311.94
2023-03-13T07:54:56.840Z,100315.31
2023-03-13T07:57:23.664Z,100309.25
2023-03-13T07:59:50.489Z,100308.31
2023-03-13T08:02:17.185Z,100312.63
2023-03-13T08:04:44.030Z,100306.38
2023-03-13T08:07:11.786Z,100301.81
2023-03-13T08:09:38.908Z,100298.56
2023-03-13T08:12:06.309Z,100293.16
2023-03-13T08:14:33.016Z,100288.69
2023-03-13T08:16:59.722Z,100288.66
2023-03-13T08:19:26.558Z,100278.09
2023-03-13T08:21:53.256Z,100274.81
2023-03-13T08:24:20.095Z,100279.13
2023-03-13T08:26:46.731Z,100274.69
2023-03-13T08:29:15.171Z,100270.25
2023-03-13T08:31:49.934Z,100265.97
2023-03-13T08:34:17.965Z,100271.78
2023-03-13T08:36:45.004Z,100270.56
2023-03-13T08:39:16.855Z,100268.66
2023-03-13T08:41:43.617Z,100264.69
2023-03-13T08:44:12.392Z,100256.69
2023-03-13T08:46:39.297Z,100262.22
2023-03-13T08:49:07.774Z,100255.34
2023-03-13T08:51:35.207Z,100257.78
2023-03-13T08:54:02.577Z,100252.47
2023-03-13T08:56:30.159Z,100248.66
2023-03-13T08:58:59.465Z,100239.41
2023-03-13T09:01:29.440Z,100243.84
2023-03-13T09:03:56.526Z,100238.56
2023-03-13T09:06:23.441Z,100241.19
2023-03-13T09:08:50.130Z,100236.84
2023-03-13T09:11:21.652Z,100239.06
2023-03-13T09:13:50.260Z,100238.34
2023-03-13T09:16:21.649Z,100234.38
2023-03-13T09:18:49.566Z,100234.06
2023-03-13T09:21:22.141Z,100230.28
2023-03-13T09:23:50.239Z,100230.00
2023-03-13T09:26:18.601Z,100220.88
2023-03-13T09:28:45.556Z,100227.09
2023-03-13T09:31:21.182Z,100226.50
2023-03-13T09:33:49.737Z,100213.72
2023-03-13T09:36:18.162Z,100214.03
2023-03-13T09:38:46.639Z,100210.06
2023-03-13T09:41:25.029Z,100209.34
2023-03-13T09:43:51.598Z,100210.78
2023-03-13T09:46:23.593Z,100205.53
2023-03-13T09:48:57.644Z,100205.38
2023-03-13T09:51:37.567Z,100206.78
2023-03-13T09:54:09.078Z,100196.84
2023-03-13T09:56:49.638Z,100202.09
2023-03-13T09:59:47.534Z,100202.28
2023-03-13T10:02:43.509Z,100200.88
2023-03-13T10:05:23.466Z,100200.56
2023-03-13T10:07:50.521Z,100187.97
2023-03-13T10:10:21.850Z,100182.47
2023-03-13T10:12:52.944Z,100177.72
2023-03-13T10:15:31.739Z,100179.53
2023-03-13T10:18:00.766Z,100176.00
2023-03-13T10:20:29.550Z,100173.00
2023-03-13T10:23:23.599Z,100177.03
2023-03-13T10:25:50.482Z,100165.88
2023-03-13T10:28:18.830Z,100159.88
2023-03-13T10:31:17.275Z,100165.88
2023-03-13T10:33:45.160Z,100164.69
2023-03-13T10:36:13.936Z,100160.06
2023-03-13T10:38:51.239Z,100156.56
2023-03-13T10:41:26.185Z,100152.94
2023-03-13T10:44:04.076Z,100156.03
2023-03-13T10:46:34.269Z,100160.09
2023-03-13T10:49:04.416Z,100146.91
2023-03-13T10:51:39.457Z,100151.66
2023-03-13T10:54:26.795Z,100150.97
2023-03-13T10:57:17.673Z,100139.00
2023-03-13T10:59:47.135Z,100136.38
2023-03-13T11:02:38.073Z,100120.75
2023-03-13T11:05:23.535Z,100129.88
2023-03-13T11:07:51.149Z,100126.56
2023-03-13T11:10:29.141Z,100117.50
2023-03-13T11:12:58.012Z,100109.13
2023-03-13T11:15:51.497Z,100111.78
2023-03-13T11:18:32.972Z,100105.34
2023-03-13T11:21:17.451Z,100096.34
2023-03-13T11:23:54.702Z,100106.69
2023-03-13T11:26:40.008Z,100097.34
2023-03-13T11:29:27.175Z,100102.84
2023-03-13T11:32:07.750Z,100102.25
2023-03-13T11:34:46.219Z,100088.75
2023-03-13T11:37:19.041Z,100083.19
2023-03-13T11:39:54.796Z,100083.47
2023-03-13T11:42:33.203Z,100069.50
2023-03-13T11:45:12.820Z,100055.81
2023-03-13T11:48:18.792Z,100052.41
2023-03-13T11:50:48.397Z,100047.78
2023-03-13T11:53:47.119Z,100055.00
2023-03-13T11:56:23.265Z,100046.78
2023-03-13T11:59:16.626Z,100048.47
2023-03-13T12:01:54.730Z,100047.56
2023-03-13T12:04:39.525Z,100030.69
2023-03-13T12:07:14.043Z,100025.00
2023-03-13T12:09:46.457Z,100024.25
2023-03-13T12:12:21.109Z,100011.16
2023-03-13T12:14:59.274Z,100005.28
2023-03-13T12:17:31.702Z,100015.81
2023-03-13T12:20:06.510Z,100007.88
2023-03-13T12:22:43.043Z,100002.78
2023-03-13T12:25:22.999Z,99996.78
2023-03-13T12:27:55.402Z,99990.13
2023-03-13T12:30:48.204Z,99985.69
2023-03-13T12:33:35.230Z,99980.63
2023-03-13T12:36:39.332Z,99982.91
2023-03-13T12:39:16.112Z,99981.59
2023-03-13T12:41:44.956Z,99980.44
2023-03-13T12:44:18.815Z,99970.03
2023-03-13T12:47:03.964Z,99976.69
2023-03-13T12:49:45.971Z,99974.00
2023-03-13T12:52:29.929Z,99961.25
2023-03-13T12:55:22.409Z,99956.28
2023-03-13T12:58:29.914Z,99950.84
2023-03-13T13:01:03.494Z,99943.53
2023-03-13T13:03:34.938Z,99932.72
2023-03-13T13:06:14.558Z,99931.00
2023-03-13T13:09:14.996Z,99917.47
2023-03-13T13:11:47.466Z,99917.88
2023-03-13T13:14:17.120Z,99906.47
2023-03-13T13:16:48.367Z,99905.09
2023-03-13T13:19:24.129Z,99913.00
2023-03-13T13:22:27.932Z,99915.94
2023-03-13T13:25:00.293Z,99917.69
2023-03-13T13:27:32.990Z,99916.25
2023-03-13T13:30:01.751Z,99915.03
2023-03-13T13:32:40.926Z,99915.53
2023-03-13T13:35:13.365Z,99918.78
2023-03-13T13:37:40.955Z,99913.28
2023-03-13T13:40:16.565Z,99915.47
2023-03-13T13:42:53.040Z,99896.34
2023-03-13T13:45:31.201Z,99899.88
2023-03-13T13:48:29.646Z,99889.41
2023-03-13T13:51:11.629Z,99880.63
2023-03-13T13:53:55.250Z,99874.22
2023-03-13T13:56:28.077Z,99869.78
2023-03-13T13:58:57.760Z,99863.66
2023-03-13T14:01:25.058Z,99864.84
2023-03-13T14:04:06.093Z,99859.72
2023-03-13T14:06:37.012Z,99854.56
2023-03-13T14:09:40.826Z,99845.28
2023-03-13T14:12:25.477Z,99836.69
2023-03-13T14:15:29.009Z,99829.53
2023-03-13T14:17:59.781Z,99838.25
2023-03-13T14:20:26.335Z,99839.00
2023-03-13T14:22:55.380Z,99852.53
2023-03-13T14:25:24.332Z,99843.53
2023-03-13T14:27:52.321Z,99852.63
2023-03-13T14:30:20.779Z,99848.47
2023-03-13T14:32:48.285Z,99841.25
2023-03-13T14:35:17.868Z,99849.44
2023-03-13T14:37:46.966Z,99845.59
2023-03-13T14:40:19.331Z,99842.31
2023-03-13T14:42:49.467Z,99845.50
2023-03-13T14:45:24.774Z,99849.06
2023-03-13T14:47:52.778Z,99854.72
2023-03-13T14:50:23.809Z,99843.16
2023-03-13T14:52:54.573Z,99847.22
2023-03-13T14:55:21.287Z,99847.09
2023-03-13T14:58:00.321Z,99844.72
2023-03-13T15:00:33.069Z,99838.25
2023-03-13T15:03:22.401Z,99826.81
2023-03-13T15:06:14.737Z,99827.75
2023-03-13T15:08:47.575Z,99820.97
2023-03-13T15:11:32.334Z,99821.41
2023-03-13T15:13:59.194Z,99829.75
2023-03-13T15:16:27.385Z,99819.41
2023-03-13T15:18:55.220Z,99810.84
2023-03-13T15:21:25.288Z,99817.66
2023-03-13T15:23:55.959Z,99803.72
2023-03-13T15:26:22.682Z,99803.94
2023-03-13T15:28:49.314Z,99795.41
2023-03-13T15:31:16.228Z,99795.34
2023-03-13T15:33:44.050Z,99795.78
2023-03-13T15:36:11.760Z,99791.88
2023-03-13T15:38:39.070Z,99784.69
2023-03-13T15:41:05.809Z,99785.28
2023-03-13T15:43:32.429Z,99784.19
2023-03-13T15:45:59.160Z,99776.34
2023-03-13T15:48:28.503Z,99774.59
2023-03-13T15:51:02.502Z,99767.00
2023-03-13T15:53:32.248Z,99764.91
2023-03-13T15:56:01.880Z,99768.31
2023-03-13T15:58:29.852Z,99769.50
2023-03-13T16:00:58.309Z,99760.59
2023-03-13T16:03:29.140Z,99759.78
2023-03-13T16:05:56.806Z,99754.34
2023-03-13T16:08:35.267Z,99762.38
2023-03-13T16:11:04.285Z,99773.03
2023-03-13T16:13:30.921Z,99765.88
2023-03-13T16:15:57.564Z,99757.75
2023-03-13T16:18:25.205Z,99755.59
2023-03-13T16:20:52.854Z,99753.47
2023-03-13T16:23:19.610Z,99754.66
2023-03-13T16:25:47.274Z,99754.34
2023-03-13T16:28:14.816Z,99744.09
2023-03-13T16:30:42.317Z,99749.25
2023-03-13T16:33:09.371Z,99746.91
2023-03-13T16:35:36.373Z,99760.66
2023-03-13T16:38:03.748Z,99755.25
2023-03-13T16:40:33.226Z,99746.84
2023-03-13T16:43:00.316Z,99751.03
2023-03-13T16:45:27.612Z,99745.53
2023-03-13T16:47:54.491Z,99744.69
2023-03-13T16:50:25.518Z,99758.91
2023-03-13T16:52:53.107Z,99766.16
2023-03-13T16:55:20.904Z,99764.84
2023-03-13T16:57:47.517Z,99758.56
2023-03-13T17:00:20.356Z,99758.88
2023-03-13T17:02:47.145Z,99750.97
2023-03-13T17:05:14.668Z,99752.94
2023-03-13T17:07:43.097Z,99751.88
2023-03-13T17:10:28.883Z,99750.63
2023-03-13T17:12:55.983Z,99756.19
2023-03-13T17:15:24.610Z,99759.88
2023-03-13T17:17:52.492Z,99755.78
2023-03-13T17:20:25.019Z,99755.56
2023-03-13T17:22:51.924Z,99752.72
2023-03-13T17:25:18.859Z,99750.03
2023-03-13T17:27:45.609Z,99755.19
2023-03-13T17:30:28.017Z,99764.69
2023-03-13T17:32:54.780Z,99760.53
2023-03-13T17:35:21.896Z,99744.59
2023-03-13T17:37:49.126Z,99754.34
2023-03-13T17:43:47.960Z,99751.91
2023-03-13T17:46:22.215Z,99755.97
2023-03-13T17:48:51.200Z,99755.94
2023-03-13T17:51:29.209Z,99764.38
2023-03-13T17:53:57.140Z,99757.50
2023-03-13T17:56:28.895Z,99756.34
2023-03-13T17:58:58.861Z,99756.16
2023-03-13T18:01:28.765Z,99755.81
2023-03-13T18:03:55.659Z,99748.16
2023-03-13T18:06:26.393Z,99755.78
2023-03-13T18:08:56.861Z,99746.44
2023-03-13T18:11:25.075Z,99737.41
2023-03-13T18:13:52.511Z,99738.59
2023-03-13T18:16:26.909Z,99736.31
2023-03-13T18:18:54.556Z,99737.31
2023-03-13T18:21:22.852Z,99734.28
2023-03-13T18:23:50.044Z,99717.75
2023-03-13T18:26:22.165Z,99717.97
2023-03-13T18:28:48.803Z,99717.72
2023-03-13T18:31:15.506Z,99717.53
2023-03-13T18:33:42.411Z,99715.56
2023-03-13T18:36:17.415Z,99718.25
2023-03-13T18:38:45.016Z,99714.13
2023-03-13T18:41:12.034Z,99712.91
2023-03-13T18:43:38.929Z,99702.28
2023-03-13T18:46:05.917Z,99709.72
2023-03-13T18:48:32.593Z,99712.97
2023-03-13T18:50:59.194Z,99702.91
2023-03-13T18:53:27.120Z,99695.97
2023-03-13T18:55:54.007Z,99693.41
2023-03-13T18:58:20.646Z,99693.69
2023-03-13T19:00:47.458Z,99691.94
2023-03-13T19:03:14.089Z,99693.06
2023-03-13T19:05:40.735Z,99690.19
2023-03-13T19:08:09.430Z,99688.00
2023-03-13T19:10:36.252Z,99687.94
2023-03-13T19:13:02.991Z,99675.47
2023-03-13T19:15:31.678Z,99673.19
2023-03-13T19:18:01.851Z,99668.94
2023-03-13T19:20:30.120Z,99660.44
2023-03-13T19:22:56.813Z,99673.88
2023-03-13T19:25:23.658Z,99660.88
2023-03-13T19:27:50.401Z,99652.56
2023-03-13T19:30:19.195Z,99644.34
2023-03-13T19:32:45.987Z,99646.88
2023-03-13T19:35:12.668Z,99651.66
2023-03-13T19:37:40.050Z,99658.38
2023-03-13T19:40:12.778Z,99651.41
2023-03-13T19:42:39.430Z,99644.34
2023-03-13T19:45:06.788Z,99649.28
2023-03-13T19:47:33.462Z,99647.78
2023-03-13T19:50:00.174Z,99650.72
2023-03-13T19:52:26.816Z,99650.22
2023-03-13T19:54:53.470Z,99642.63
2023-03-13T19:57:20.170Z,99641.06
2023-03-13T19:59:46.868Z,99634.28
2023-03-13T20:02:13.744Z,99635.44
2023-03-13T20:04:40.451Z,99641.56
2023-03-13T20:07:07.200Z,99640.94
2023-03-13T20:09:35.583Z,99640.72
2023-03-13T20:12:03.495Z,99644.72
2023-03-13T20:14:30.138Z,99638.50
2023-03-13T20:16:56.846Z,99639.72
2023-03-13T20:19:23.484Z,99643.97
2023-03-13T20:21:50.203Z,99643.78
2023-03-13T20:24:16.883Z,99644.97
2023-03-13T20:26:43.529Z,99644.72
2023-03-13T20:29:10.278Z,99640.34
2023-03-13T20:31:36.974Z,99638.06
2023-03-13T20:34:03.663Z,99632.59
2023-03-13T20:36:30.326Z,99622.19
2023-03-13T20:38:57.121Z,99618.03
2023-03-13T20:41:23.793Z,99613.22
2023-03-13T20:43:50.750Z,99611.59
2023-03-13T20:46:17.368Z,99605.91
2023-03-13T20:48:44.245Z,99594.13
2023-03-13T20:51:10.995Z,99593.44
2023-03-13T20:53:39.273Z,99585.75
2023-03-13T20:56:07.488Z,99577.06
2023-03-13T20:58:35.462Z,99574.00
2023-03-13T21:01:04.042Z,99555.66
2023-03-13T21:03:31.195Z,99564.38
2023-03-13T21:05:57.807Z,99560.03
2023-03-13T21:08:24.486Z,99551.88
2023-03-13T21:10:51.161Z,99546.16
2023-03-13T21:13:17.902Z,99540.53
2023-03-13T21:15:44.529Z,99538.84
2023-03-13T21:18:11.193Z,99529.03
2023-03-13T21:20:38.381Z,99528.03
2023-03-13T21:23:05.141Z,99515.41
2023-03-13T21:25:31.820Z,99508.72
2023-03-13T21:27:58.578Z,99508.97
2023-03-13T21:30:25.295Z,99512.44
2023-03-13T21:32:52.133Z,99506.59
2023-03-13T21:35:18.830Z,99495.75
2023-03-13T21:37:45.451Z,99492.19
2023-03-13T21:40:13.004Z,99484.81
2023-03-13T21:42:39.758Z,99484.69
2023-03-13T21:45:07.840Z,99487.00
2023-03-13T21:47:34.917Z,99479.09
2023-03-13T21:50:01.547Z,99483.84
2023-03-13T21:52:28.317Z,99479.31
2023-03-13T21:54:54.929Z,99473.84
2023-03-13T21:57:21.574Z,99466.41
2023-03-13T21:59:48.286Z,99462.44
2023-03-13T22:02:14.984Z,99470.06
2023-03-13T22:04:41.649Z,99465.72
2023-03-13T22:07:09.618Z,99470.16
2023-03-13T22:09:36.206Z,99463.59
2023-03-13T22:12:07.263Z,99467.63
2023-03-13T22:14:33.903Z,99454.38
2023-03-13T22:17:00.521Z,99460.63
2023-03-13T22:19:27.350Z,99453.00
2023-03-13T22:21:53.990Z,99447.94
2023-03-13T22:24:20.631Z,99451.53
2023-03-13T22:26:47.257Z,99438.78
2023-03-13T22:29:13.904Z,99429.03
2023-03-13T22:31:40.529Z,99438.84
2023-03-13T22:34:07.232Z,99433.34
2023-03-13T22:36:33.858Z,99432.84
2023-03-13T22:39:00.438Z,99429.25
2023-03-13T22:41:27.172Z,99427.41
2023-03-13T22:43:53.824Z,99420.13
2023-03-13T22:46:20.572Z,99418.97
2023-03-13T22:48:47.285Z,99414.78
2023-03-13T22:51:14.498Z,99413.63
2023-03-13T22:53:42.529Z,99405.88
2023-03-13T22:56:11.005Z,99399.59
2023-03-13T22:58:38.275Z,99409.97
2023-03-13T23:01:10.162Z,99419.94
2023-03-13T23:03:37.091Z,99404.88
2023-03-13T23:06:15.937Z,99407.19
2023-03-13T23:08:43.913Z,99398.59
2023-03-13T23:11:10.843Z,99392.09
2023-03-13T23:13:37.627Z,99376.91
2023-03-13T23:16:09.724Z,99387.91
2023-03-13T23:18:37.476Z,99379.66
2023-03-13T23:21:10.189Z,99383.00
2023-03-13T23:23:37.224Z,99368.63
2023-03-13T23:26:06.061Z,99370.81
2023-03-13T23:28:33.916Z,99375.19
2023-03-13T23:31:00.783Z,99364.59
2023-03-13T23:33:28.909Z,99365.59
2023-03-13T23:35:55.585Z,99362.69
2023-03-13T23:38:22.223Z,99364.38
2023-03-13T23:40:48.985Z,99361.56
2023-03-13T23:43:15.638Z,99358.19
2023-03-13T23:45:42.236Z,99357.06
2023-03-13T23:48:08.888Z,99356.00
2023-03-13T23:50:36.539Z,99356.72
2023-03-13T23:53:03.385Z,99348.44
2023-03-13T23:55:30.012Z,99349.91
2023-03-13T23:57:56.728Z,99348.34
